Time;durP1;ratioP1;P1;durP2;ratioP2;P2;SDS_P1;SDS_P2;PMS_P1;PMS_P2;Temp;Humidity;BMP_temperature;BMP_pressure;BME280_temperature;BME280_humidity;BME280_pressure;Samples;Min_cycle;Max_cycle;Signal;HPM_P1;HPM_P2
2024/01/10 00:02:06;;;;;;;14.73;9.75;;;;;;;;;;4978102;28;20050;-81
2024/01/10 00:04:31;;;;;;;18.33;10.10;;;;;;;;;;4959621;28;20055;-83
2024/01/10 00:06:57;;;;;;;15.38;11.15;;;;;;;;;;4978901;28;20042;-81
2024/01/10 00:09:22;;;;;;;17.98;10.70;;;;;;;;;;4981014;28;20042;-82
2024/01/10 00:11:48;;;;;;;17.08;10.45;;;;;;;;;;4979605;28;20050;-82
2024/01/10 00:14:14;;;;;;;16.50;9.88;;;;;;;;;;4976756;28;20045;-82
2024/01/10 00:16:39;;;;;;;20.98;11.00;;;;;;;;;;4981217;28;20038;-82
2024/01/10 00:19:05;;;;;;;19.30;11.02;;;;;;;;;;4961819;28;20041;-83
2024/01/10 00:21:31;;;;;;;11.98;10.18;;;;;;;;;;4963179;28;20038;-83
2024/01/10 00:23:57;;;;;;;13.90;9.75;;;;;;;;;;4980980;28;20046;-83
2024/01/10 00:26:23;;;;;;;24.33;10.45;;;;;;;;;;4974660;28;20046;-83
2024/01/10 00:28:48;;;;;;;11.70;9.30;;;;;;;;;;4981132;28;20053;-83
2024/01/10 00:31:14;;;;;;;18.05;9.88;;;;;;;;;;4976892;28;20069;-83
2024/01/10 00:33:40;;;;;;;16.83;10.75;;;;;;;;;;4977871;28;20049;-83
2024/01/10 00:36:06;;;;;;;16.98;9.80;;;;;;;;;;4977493;28;20053;-83
2024/01/10 00:38:32;;;;;;;13.38;9.18;;;;;;;;;;4982950;28;20519;-83
2024/01/10 00:40:57;;;;;;;9.20;7.93;;;;;;;;;;4956462;28;20039;-83
2024/01/10 00:43:23;;;;;;;25.10;10.23;;;;;;;;;;4961471;28;20049;-83
2024/01/10 00:45:49;;;;;;;13.57;9.05;;;;;;;;;;4971118;28;20038;-83
2024/01/10 00:48:14;;;;;;;10.57;9.40;;;;;;;;;;4979835;28;20039;-83
2024/01/10 00:50:40;;;;;;;14.20;9.90;;;;;;;;;;4967367;28;20065;-82
2024/01/10 00:53:05;;;;;;;17.13;11.23;;;;;;;;;;4980562;28;20042;-83
2024/01/10 00:55:31;;;;;;;15.40;9.80;;;;;;;;;;4984861;28;20029;-83
2024/01/10 00:57:57;;;;;;;14.63;10.98;;;;;;;;;;4987028;28;20065;-83
2024/01/10 01:00:22;;;;;;;16.48;9.07;;;;;;;;;;4964210;28;20138;-83
2024/01/10 01:02:48;;;;;;;18.35;10.45;;;;;;;;;;4985377;28;20073;-83
2024/01/10 01:05:13;;;;;;;8.43;7.50;;;;;;;;;;5013426;28;20085;-83
2024/01/10 01:07:39;;;;;;;10.57;8.00;;;;;;;;;;4987914;28;20066;-83
2024/01/10 01:10:05;;;;;;;8.90;8.02;;;;;;;;;;4964859;28;20045;-82
2024/01/10 01:12:31;;;;;;;12.30;9.18;;;;;;;;;;4981875;28;20488;-83
2024/01/10 01:14:57;;;;;;;8.32;7.50;;;;;;;;;;4964945;28;20104;-83
2024/01/10 01:17:22;;;;;;;16.83;9.35;;;;;;;;;;4981450;28;20030;-83
2024/01/10 01:19:48;;;;;;;13.48;9.43;;;;;;;;;;4984168;28;20755;-83
2024/01/10 01:22:14;;;;;;;11.27;8.63;;;;;;;;;;4981155;28;20145;-82
2024/01/10 01:24:39;;;;;;;11.15;8.93;;;;;;;;;;4986127;28;20450;-83
2024/01/10 01:27:05;;;;;;;9.90;8.88;;;;;;;;;;4980896;28;20044;-83
2024/01/10 01:29:30;;;;;;;5.82;5.45;;;;;;;;;;4967267;28;20033;-83
2024/01/10 01:31:57;;;;;;;16.27;11.25;;;;;;;;;;4953868;28;20097;-83
2024/01/10 01:34:22;;;;;;;19.58;12.73;;;;;;;;;;5008200;28;20054;-83
2024/01/10 01:36:48;;;;;;;24.70;11.43;;;;;;;;;;4983209;28;20086;-83
2024/01/10 01:39:13;;;;;;;15.48;9.15;;;;;;;;;;4963600;28;20038;-82
2024/01/10 01:41:39;;;;;;;13.40;9.43;;;;;;;;;;4987979;28;20038;-82
2024/01/10 01:44:05;;;;;;;16.60;11.43;;;;;;;;;;4981261;28;20073;-83
2024/01/10 01:46:32;;;;;;;11.48;10.07;;;;;;;;;;4969710;28;20066;-83
2024/01/10 01:48:58;;;;;;;22.42;11.50;;;;;;;;;;4983854;28;20149;-82
2024/01/10 01:51:27;;;;;;;8.30;6.47;;;;;;;;;;4978946;28;20038;-83
2024/01/10 01:53:54;;;;;;;13.85;10.23;;;;;;;;;;4982489;28;20654;-82
2024/01/10 01:56:20;;;;;;;16.67;10.73;;;;;;;;;;4964986;28;20121;-81
2024/01/10 01:58:47;;;;;;;15.25;9.60;;;;;;;;;;4986021;28;20124;-82
2024/01/10 02:01:13;;;;;;;6.80;6.20;;;;;;;;;;4981721;28;20073;-83
2024/01/10 02:03:39;;;;;;;13.45;9.50;;;;;;;;;;4984008;28;20110;-83
2024/01/10 02:06:05;;;;;;;9.88;8.52;;;;;;;;;;4952713;28;20053;-83
2024/01/10 02:08:34;;;;;;;15.07;8.15;;;;;;;;;;4982767;28;20036;-83
2024/01/10 02:11:03;;;;;;;11.13;9.30;;;;;;;;;;5010110;28;20045;-83
2024/01/10 02:13:29;;;;;;;22.63;10.20;;;;;;;;;;4984621;28;20038;-82
2024/01/10 02:15:56;;;;;;;16.45;8.15;;;;;;;;;;4965841;28;20775;-82
2024/01/10 02:18:21;;;;;;;9.95;7.57;;;;;;;;;;4982635;28;20038;-83
2024/01/10 02:20:47;;;;;;;15.52;7.53;;;;;;;;;;4967657;28;20046;-81
2024/01/10 02:23:13;;;;;;;13.20;9.98;;;;;;;;;;4981683;28;20524;-83
2024/01/10 02:25:40;;;;;;;11.95;8.52;;;;;;;;;;4996140;28;20061;-83
2024/01/10 02:28:07;;;;;;;13.23;9.65;;;;;;;;;;4985100;28;20058;-83
2024/01/10 02:30:33;;;;;;;8.77;7.97;;;;;;;;;;4966177;28;20038;-83
2024/01/10 02:32:59;;;;;;;10.68;7.35;;;;;;;;;;4979385;28;20114;-82
2024/01/10 02:35:24;;;;;;;18.70;9.52;;;;;;;;;;4992240;28;20136;-83
2024/01/10 02:37:51;;;;;;;17.20;9.98;;;;;;;;;;4983219;28;20284;-83
2024/01/10 02:40:17;;;;;;;10.70;8.63;;;;;;;;;;4987380;28;20046;-83
2024/01/10 02:42:43;;;;;;;7.82;7.13;;;;;;;;;;4979642;28;20038;-82
2024/01/10 02:45:08;;;;;;;15.23;7.80;;;;;;;;;;4981171;28;20050;-83
2024/01/10 02:47:34;;;;;;;14.77;9.95;;;;;;;;;;4986898;28;20567;-82
2024/01/10 02:50:00;;;;;;;17.90;10.23;;;;;;;;;;4981320;28;20061;-83
2024/01/10 02:52:25;;;;;;;15.57;8.98;;;;;;;;;;4952479;28;20516;-83
2024/01/10 02:54:51;;;;;;;16.33;11.07;;;;;;;;;;4984388;28;20120;-83
2024/01/10 02:57:16;;;;;;;9.27;8.07;;;;;;;;;;4965470;28;20116;-83
2024/01/10 02:59:42;;;;;;;12.52;9.15;;;;;;;;;;4985180;28;20600;-82
2024/01/10 03:02:08;;;;;;;9.50;7.97;;;;;;;;;;4966072;28;20042;-83
2024/01/10 03:04:34;;;;;;;8.52;7.45;;;;;;;;;;4995070;28;20041;-82
2024/01/10 03:06:59;;;;;;;11.30;8.95;;;;;;;;;;4984974;28;20041;-81
2024/01/10 03:09:25;;;;;;;6.05;5.60;;;;;;;;;;4978658;28;20060;-82
2024/01/10 03:11:50;;;;;;;12.10;8.30;;;;;;;;;;4986582;28;20077;-82
2024/01/10 03:14:16;;;;;;;17.70;10.88;;;;;;;;;;4992011;28;20562;-83
2024/01/10 03:16:41;;;;;;;15.10;8.70;;;;;;;;;;4958684;28;20116;-84
2024/01/10 03:19:07;;;;;;;10.95;8.43;;;;;;;;;;4974534;28;20544;-82
2024/01/10 03:21:32;;;;;;;10.85;8.32;;;;;;;;;;4979766;28;20417;-81
2024/01/10 03:24:00;;;;;;;11.50;9.43;;;;;;;;;;4974857;28;20050;-83
2024/01/10 03:26:26;;;;;;;15.60;10.07;;;;;;;;;;4973147;28;20038;-83
2024/01/10 03:28:52;;;;;;;14.20;8.65;;;;;;;;;;4962469;28;21234;-82
2024/01/10 03:31:19;;;;;;;8.50;7.65;;;;;;;;;;4960051;28;20045;-84
2024/01/10 03:33:44;;;;;;;9.57;8.13;;;;;;;;;;4975250;28;20046;-83
2024/01/10 03:36:16;;;;;;;10.93;8.23;;;;;;;;;;4973953;28;20046;-83
2024/01/10 03:38:42;;;;;;;6.53;5.95;;;;;;;;;;4972461;28;20132;-83
2024/01/10 03:41:13;;;;;;;12.23;8.95;;;;;;;;;;4979280;28;20038;-83
2024/01/10 03:43:38;;;;;;;8.82;7.22;;;;;;;;;;4969829;28;20049;-83
2024/01/10 03:46:04;;;;;;;8.75;7.15;;;;;;;;;;4979299;28;20042;-83
2024/01/10 03:48:29;;;;;;;18.17;10.10;;;;;;;;;;4959572;28;20046;-84
2024/01/10 03:50:55;;;;;;;9.98;7.50;;;;;;;;;;4979800;28;20112;-83
2024/01/10 03:53:20;;;;;;;13.48;8.05;;;;;;;;;;4960941;28;20046;-83
2024/01/10 03:55:46;;;;;;;15.23;8.40;;;;;;;;;;4995500;28;20030;-82
2024/01/10 03:58:11;;;;;;;11.48;8.32;;;;;;;;;;4973445;28;20035;-83
2024/01/10 04:00:37;;;;;;;9.05;7.72;;;;;;;;;;4972380;28;20105;-83
2024/01/10 04:03:03;;;;;;;9.20;8.32;;;;;;;;;;4976634;28;20642;-82
2024/01/10 04:05:29;;;;;;;17.40;9.15;;;;;;;;;;4985863;28;20038;-84
2024/01/10 04:07:56;;;;;;;17.35;9.38;;;;;;;;;;4959761;28;20126;-83
2024/01/10 04:10:22;;;;;;;10.82;7.40;;;;;;;;;;4990210;28;20046;-83
2024/01/10 04:12:49;;;;;;;6.72;6.15;;;;;;;;;;4978867;28;20505;-83
2024/01/10 04:15:15;;;;;;;5.30;4.90;;;;;;;;;;4976767;28;20042;-83
2024/01/10 04:17:40;;;;;;;9.40;7.20;;;;;;;;;;4981501;28;20367;-84
2024/01/10 04:20:10;;;;;;;7.47;6.65;;;;;;;;;;4977940;28;20533;-83
2024/01/10 04:22:35;;;;;;;4.75;4.50;;;;;;;;;;5011088;28;20034;-83
2024/01/10 04:25:05;;;;;;;13.07;7.88;;;;;;;;;;4966414;28;20038;-82
2024/01/10 04:27:30;;;;;;;;;;;;;;;;;;4982983;28;20121;-83
2024/01/10 04:29:56;;;;;;;8.18;6.95;;;;;;;;;;4977926;28;20707;-83
2024/01/10 04:32:21;;;;;;;8.18;6.35;;;;;;;;;;4982074;28;20038;-83
2024/01/10 04:34:47;;;;;;;5.18;4.85;;;;;;;;;;4965566;28;20093;-83
2024/01/10 04:37:13;;;;;;;5.47;5.18;;;;;;;;;;4943923;28;20035;-82
2024/01/10 04:39:40;;;;;;;9.43;6.90;;;;;;;;;;4990456;28;20047;-83
2024/01/10 04:42:06;;;;;;;17.88;8.77;;;;;;;;;;4966597;28;20492;-83
2024/01/10 04:44:32;;;;;;;9.57;7.22;;;;;;;;;;4976498;28;20500;-83
2024/01/10 04:46:57;;;;;;;6.05;5.55;;;;;;;;;;4983621;28;20121;-83
2024/01/10 04:49:23;;;;;;;14.02;9.15;;;;;;;;;;4980755;28;20042;-82
2024/01/10 04:51:50;;;;;;;6.53;5.93;;;;;;;;;;4983678;28;20046;-83
2024/01/10 04:54:15;;;;;;;9.75;8.45;;;;;;;;;;4962078;28;20057;-83
2024/01/10 04:56:41;;;;;;;7.65;6.82;;;;;;;;;;4982669;28;20030;-82
2024/01/10 04:59:07;;;;;;;8.02;5.60;;;;;;;;;;4981364;28;20034;-82
2024/01/10 05:01:32;;;;;;;21.38;8.75;;;;;;;;;;4980686;28;20163;-82
2024/01/10 05:03:58;;;;;;;7.00;5.65;;;;;;;;;;4982056;28;20049;-82
2024/01/10 05:06:23;;;;;;;8.68;7.82;;;;;;;;;;4978678;28;20042;-82
2024/01/10 05:08:49;;;;;;;9.15;7.53;;;;;;;;;;4979141;28;20045;-82
2024/01/10 05:11:15;;;;;;;9.02;6.93;;;;;;;;;;4979399;28;20125;-82
2024/01/10 05:13:41;;;;;;;95.82;37.92;;;;;;;;;;4979214;28;20100;-82
2024/01/10 05:16:07;;;;;;;9.35;7.15;;;;;;;;;;4968566;28;20042;-81
2024/01/10 05:18:32;;;;;;;11.68;8.82;;;;;;;;;;4975802;28;20093;-82
2024/01/10 05:20:59;;;;;;;10.30;7.53;;;;;;;;;;4981581;28;20050;-83
2024/01/10 05:23:25;;;;;;;11.57;8.77;;;;;;;;;;4980347;28;20030;-82
2024/01/10 05:25:51;;;;;;;14.75;9.15;;;;;;;;;;4977908;28;20044;-83
2024/01/10 05:28:17;;;;;;;13.90;8.95;;;;;;;;;;4979855;28;20030;-82
2024/01/10 05:30:43;;;;;;;13.95;10.23;;;;;;;;;;4980956;28;20176;-83
2024/01/10 05:33:10;;;;;;;6.75;5.43;;;;;;;;;;4981849;28;20042;-82
2024/01/10 05:35:38;;;;;;;13.05;8.80;;;;;;;;;;4983105;28;20061;-83
2024/01/10 05:38:03;;;;;;;5.45;5.05;;;;;;;;;;4975355;28;20112;-82
2024/01/10 05:40:32;;;;;;;8.77;7.85;;;;;;;;;;4974793;28;20476;-83
2024/01/10 05:43:00;;;;;;;10.55;8.68;;;;;;;;;;4983921;28;20698;-82
2024/01/10 05:45:26;;;;;;;4.65;4.35;;;;;;;;;;4964203;28;20571;-83
2024/01/10 05:47:52;;;;;;;16.02;9.10;;;;;;;;;;4984487;28;20037;-82
2024/01/10 05:50:18;;;;;;;6.93;6.30;;;;;;;;;;5007041;28;20116;-84
2024/01/10 05:52:43;;;;;;;6.35;5.78;;;;;;;;;;4981202;28;20034;-80
2024/01/10 05:55:10;;;;;;;8.93;7.65;;;;;;;;;;4984200;28;20042;-83
2024/01/10 05:57:36;;;;;;;12.00;7.25;;;;;;;;;;4961418;28;20925;-82
2024/01/10 06:00:03;;;;;;;10.18;9.15;;;;;;;;;;5010922;28;20045;-82
2024/01/10 06:02:30;;;;;;;5.60;5.15;;;;;;;;;;4963835;28;20500;-82
2024/01/10 06:04:56;;;;;;;7.43;6.75;;;;;;;;;;4980630;28;20149;-83
2024/01/10 06:07:21;;;;;;;6.72;6.20;;;;;;;;;;4981797;28;20457;-82
2024/01/10 06:09:47;;;;;;;5.47;5.18;;;;;;;;;;5010241;28;20030;-83
2024/01/10 06:12:13;;;;;;;17.35;11.27;;;;;;;;;;4983970;28;20038;-83
2024/01/10 06:14:39;;;;;;;17.15;12.75;;;;;;;;;;4986978;28;20041;-83
2024/01/10 06:17:05;;;;;;;7.65;6.72;;;;;;;;;;4952596;28;20520;-83
2024/01/10 06:19:31;;;;;;;7.38;6.63;;;;;;;;;;4978223;28;20038;-82
2024/01/10 06:21:57;;;;;;;11.07;8.82;;;;;;;;;;4988523;28;20084;-82
2024/01/10 06:24:23;;;;;;;13.10;8.75;;;;;;;;;;4955138;28;20045;-82
2024/01/10 06:26:51;;;;;;;9.57;8.60;;;;;;;;;;4965976;28;20054;-82
2024/01/10 06:29:18;;;;;;;8.63;6.93;;;;;;;;;;4987982;28;20416;-81
2024/01/10 06:31:44;;;;;;;6.82;6.03;;;;;;;;;;4987153;28;20420;-82
2024/01/10 06:34:09;;;;;;;7.70;7.05;;;;;;;;;;4981860;28;20084;-82
2024/01/10 06:36:35;;;;;;;6.82;6.20;;;;;;;;;;4986572;28;20037;-82
2024/01/10 06:39:01;;;;;;;5.80;5.35;;;;;;;;;;5012021;28;20037;-82
2024/01/10 06:41:27;;;;;;;7.88;7.07;;;;;;;;;;4981568;28;20042;-81
2024/01/10 06:43:53;;;;;;;10.23;7.50;;;;;;;;;;4989003;28;20037;-81
2024/01/10 06:46:20;;;;;;;17.13;9.75;;;;;;;;;;4953432;28;20049;-81
2024/01/10 06:48:46;;;;;;;10.60;7.53;;;;;;;;;;4987849;28;20080;-82
2024/01/10 06:51:16;;;;;;;5.70;5.30;;;;;;;;;;4989270;28;20129;-81
2024/01/10 06:53:41;;;;;;;6.50;6.13;;;;;;;;;;4981934;28;20037;-82
2024/01/10 06:56:09;;;;;;;3.88;3.75;;;;;;;;;;4971796;28;20042;-83
2024/01/10 06:58:35;;;;;;;11.23;7.70;;;;;;;;;;4985504;28;20056;-80
2024/01/10 07:01:00;;;;;;;17.95;10.88;;;;;;;;;;4963436;28;20046;-82
2024/01/10 07:03:27;;;;;;;6.05;5.65;;;;;;;;;;4978957;28;20034;-80
2024/01/10 07:05:52;;;;;;;8.82;7.97;;;;;;;;;;4997162;28;20030;-81
2024/01/10 07:08:18;;;;;;;16.58;8.32;;;;;;;;;;4985946;28;20045;-82
2024/01/10 07:10:43;;;;;;;6.68;6.20;;;;;;;;;;4985196;28;20042;-82
2024/01/10 07:13:10;;;;;;;7.10;6.57;;;;;;;;;;4964074;28;20730;-81
2024/01/10 07:15:37;;;;;;;6.40;5.78;;;;;;;;;;4978429;28;20050;-81
2024/01/10 07:18:02;;;;;;;9.65;8.57;;;;;;;;;;4979118;28;20632;-82
2024/01/10 07:20:28;;;;;;;15.63;8.55;;;;;;;;;;4994855;28;20061;-81
2024/01/10 07:22:54;;;;;;;12.68;9.55;;;;;;;;;;4987357;28;20038;-81
2024/01/10 07:25:22;;;;;;;6.32;5.88;;;;;;;;;;4981268;28;20046;-81
2024/01/10 07:27:47;;;;;;;9.40;8.60;;;;;;;;;;4963245;28;20624;-82
2024/01/10 07:30:13;;;;;;;7.75;6.90;;;;;;;;;;4996517;28;20035;-81
2024/01/10 07:32:43;;;;;;;14.85;10.68;;;;;;;;;;4962322;28;20096;-81
2024/01/10 07:35:09;;;;;;;6.55;5.93;;;;;;;;;;4979249;28;20703;-81
2024/01/10 07:37:37;;;;;;;12.60;9.52;;;;;;;;;;5011666;28;20485;-82
2024/01/10 07:40:05;;;;;;;14.60;10.35;;;;;;;;;;4982508;28;20046;-82
2024/01/10 07:42:31;;;;;;;15.50;11.25;;;;;;;;;;4986281;28;20037;-81
2024/01/10 07:44:57;;;;;;;19.42;10.55;;;;;;;;;;4981467;28;20042;-82
2024/01/10 07:47:22;;;;;;;5.75;5.35;;;;;;;;;;4983431;28;20038;-81
2024/01/10 07:49:48;;;;;;;14.38;11.88;;;;;;;;;;4981200;28;20034;-82
2024/01/10 07:52:16;;;;;;;24.90;11.15;;;;;;;;;;4979001;28;20084;-81
2024/01/10 07:54:41;;;;;;;13.20;10.32;;;;;;;;;;4999645;28;20053;-81
2024/01/10 07:57:07;;;;;;;4.93;4.68;;;;;;;;;;4981461;28;20034;-82
2024/01/10 07:59:33;;;;;;;13.20;9.43;;;;;;;;;;4981102;28;20137;-82
2024/01/10 08:02:00;;;;;;;21.25;12.40;;;;;;;;;;4988556;28;20131;-82
2024/01/10 08:04:29;;;;;;;19.23;10.55;;;;;;;;;;4960110;28;20700;-82
2024/01/10 08:06:55;;;;;;;8.35;7.60;;;;;;;;;;4971015;28;20085;-81
2024/01/10 08:09:23;;;;;;;8.18;7.38;;;;;;;;;;4986660;28;20076;-80
2024/01/10 08:11:49;;;;;;;5.25;5.00;;;;;;;;;;4992397;28;20046;-81
2024/01/10 08:14:15;;;;;;;15.60;12.88;;;;;;;;;;5016373;28;20169;-82
2024/01/10 08:16:41;;;;;;;13.15;9.23;;;;;;;;;;4987864;28;20046;-80
2024/01/10 08:19:07;;;;;;;14.30;10.63;;;;;;;;;;4967938;28;20042;-80
2024/01/10 08:21:33;;;;;;;9.07;8.38;;;;;;;;;;4966661;28;20550;-82
2024/01/10 08:24:00;;;;;;;13.52;9.93;;;;;;;;;;4991444;28;20034;-82
2024/01/10 08:26:27;;;;;;;12.18;10.80;;;;;;;;;;4979890;28;20038;-82
2024/01/10 08:28:52;;;;;;;7.50;7.03;;;;;;;;;;4974852;28;20129;-81
2024/01/10 08:31:18;;;;;;;10.02;8.65;;;;;;;;;;5015058;28;20149;-80
2024/01/10 08:33:44;;;;;;;11.68;10.43;;;;;;;;;;4967054;28;20345;-80
2024/01/10 08:36:11;;;;;;;10.85;9.73;;;;;;;;;;4997476;28;20065;-82
2024/01/10 08:38:37;;;;;;;17.20;10.35;;;;;;;;;;4970699;28;20046;-82
2024/01/10 08:41:03;;;;;;;12.65;10.27;;;;;;;;;;4991287;28;20165;-80
2024/01/10 08:43:29;;;;;;;27.38;15.30;;;;;;;;;;4987707;28;20042;-81
2024/01/10 08:45:54;;;;;;;8.68;7.85;;;;;;;;;;5002340;28;20630;-82
2024/01/10 08:48:20;;;;;;;15.40;12.23;;;;;;;;;;5001805;28;20064;-83
2024/01/10 08:50:46;;;;;;;11.52;9.50;;;;;;;;;;4983269;28;20038;-82
2024/01/10 08:53:11;;;;;;;20.05;12.95;;;;;;;;;;4990621;28;20144;-81
2024/01/10 08:55:37;;;;;;;20.50;13.30;;;;;;;;;;4997810;28;20041;-82
2024/01/10 08:58:03;;;;;;;16.65;11.73;;;;;;;;;;4992398;28;20042;-82
2024/01/10 09:00:29;;;;;;;22.00;12.77;;;;;;;;;;4964381;28;20092;-83
2024/01/10 09:02:55;;;;;;;25.15;14.13;;;;;;;;;;4994114;28;20049;-82
2024/01/10 09:05:21;;;;;;;21.92;13.73;;;;;;;;;;4978497;28;20125;-82
2024/01/10 09:07:47;;;;;;;24.50;14.10;;;;;;;;;;4997369;28;20050;-82
2024/01/10 09:10:13;;;;;;;23.50;13.93;;;;;;;;;;4991049;28;20030;-82
2024/01/10 09:12:39;;;;;;;28.02;14.98;;;;;;;;;;4992716;28;20034;-82
2024/01/10 09:15:08;;;;;;;23.52;13.90;;;;;;;;;;4981108;28;20097;-82
2024/01/10 09:17:33;;;;;;;23.83;14.90;;;;;;;;;;4967002;28;20049;-82
2024/01/10 09:19:59;;;;;;;26.77;14.18;;;;;;;;;;4984895;28;20046;-82
2024/01/10 09:22:24;;;;;;;21.42;13.88;;;;;;;;;;4984739;28;20417;-83
2024/01/10 09:24:50;;;;;;;22.70;15.48;;;;;;;;;;4971148;28;20046;-82
2024/01/10 09:27:16;;;;;;;22.92;14.35;;;;;;;;;;4978728;28;20475;-82
2024/01/10 09:29:42;;;;;;;24.92;14.38;;;;;;;;;;4987160;28;20069;-82
2024/01/10 09:32:08;;;;;;;27.17;15.48;;;;;;;;;;4989617;28;20066;-81
2024/01/10 09:34:33;;;;;;;36.15;18.02;;;;;;;;;;4981296;28;20082;-81
2024/01/10 09:36:59;;;;;;;23.85;15.38;;;;;;;;;;4984585;28;20096;-81
2024/01/10 09:39:24;;;;;;;21.88;14.40;;;;;;;;;;4985137;28;20038;-82
2024/01/10 09:41:50;;;;;;;18.52;12.65;;;;;;;;;;4996943;28;20060;-81
2024/01/10 09:44:21;;;;;;;22.65;13.48;;;;;;;;;;4982671;28;20512;-82
2024/01/10 09:46:51;;;;;;;27.23;14.40;;;;;;;;;;5007510;28;20156;-81
2024/01/10 09:49:17;;;;;;;15.98;10.95;;;;;;;;;;5016085;28;20033;-83
2024/01/10 09:51:46;;;;;;;26.48;16.63;;;;;;;;;;4970292;28;20038;-82
2024/01/10 09:54:13;;;;;;;19.90;13.20;;;;;;;;;;4983294;28;20046;-82
2024/01/10 09:56:39;;;;;;;15.20;9.57;;;;;;;;;;4981891;28;20577;-82
2024/01/10 09:59:10;;;;;;;22.48;15.07;;;;;;;;;;5015199;28;20050;-82
2024/01/10 10:01:39;;;;;;;18.23;13.57;;;;;;;;;;4979489;28;20505;-82
2024/01/10 10:04:07;;;;;;;25.17;16.42;;;;;;;;;;4998120;28;20058;-82
2024/01/10 10:06:34;;;;;;;23.25;15.90;;;;;;;;;;4982465;28;20138;-82
2024/01/10 10:09:00;;;;;;;19.42;13.00;;;;;;;;;;5002891;28;20626;-82
2024/01/10 10:11:26;;;;;;;25.15;15.43;;;;;;;;;;4969561;28;20037;-82
2024/01/10 10:13:51;;;;;;;23.52;16.02;;;;;;;;;;4965258;28;20042;-81
2024/01/10 10:16:27;;;;;;;25.40;15.50;;;;;;;;;;5014405;28;20041;-82
2024/01/10 10:18:57;;;;;;;26.08;16.15;;;;;;;;;;4963168;28;20042;-82
2024/01/10 10:21:26;;;;;;;26.63;15.68;;;;;;;;;;4981244;28;20034;-82
2024/01/10 10:23:59;;;;;;;;;;;;;;;;;;4988307;28;20077;-83
2024/01/10 10:26:27;;;;;;;23.42;15.02;;;;;;;;;;4983465;28;19918;-81
2024/01/10 10:28:52;;;;;;;25.13;16.95;;;;;;;;;;4963529;28;20049;-82
2024/01/10 10:31:19;;;;;;;19.05;13.70;;;;;;;;;;5011603;28;20068;-82
2024/01/10 10:33:45;;;;;;;23.52;15.05;;;;;;;;;;4997631;28;20072;-82
2024/01/10 10:36:14;;;;;;;31.60;17.92;;;;;;;;;;4995054;28;20519;-82
2024/01/10 10:38:40;;;;;;;19.17;14.60;;;;;;;;;;4979718;28;20046;-82
2024/01/10 10:41:12;;;;;;;26.67;17.63;;;;;;;;;;4964969;28;20082;-82
2024/01/10 10:43:39;;;;;;;23.60;14.10;;;;;;;;;;4955209;28;20046;-81
2024/01/10 10:46:06;;;;;;;23.92;15.32;;;;;;;;;;4980917;28;20092;-82
2024/01/10 10:48:34;;;;;;;23.80;15.05;;;;;;;;;;4956714;28;20129;-82
2024/01/10 10:51:10;;;;;;;22.33;14.32;;;;;;;;;;4961432;28;20037;-82
2024/01/10 10:53:37;;;;;;;14.63;11.65;;;;;;;;;;4958448;28;20060;-82
2024/01/10 10:56:05;;;;;;;25.52;16.27;;;;;;;;;;4967017;28;20038;-83
2024/01/10 10:58:38;;;;;;;32.50;20.02;;;;;;;;;;4987653;28;20042;-83
2024/01/10 11:01:08;;;;;;;28.00;19.02;;;;;;;;;;4970488;28;20038;-84
2024/01/10 11:03:38;;;;;;;24.35;15.70;;;;;;;;;;4977044;28;20039;-82
2024/01/10 11:06:04;;;;;;;21.42;15.07;;;;;;;;;;4980504;28;20037;-82
2024/01/10 11:08:58;;;;;;;33.40;18.38;;;;;;;;;;4972556;28;20049;-83
2024/01/10 11:11:56;;;;;;;25.65;16.10;;;;;;;;;;4978644;28;20038;-83
2024/01/10 11:15:03;;;;;;;80.93;34.55;;;;;;;;;;4966896;28;20148;-82
2024/01/10 11:17:50;;;;;;;12.90;11.77;;;;;;;;;;4964463;28;20055;-83
2024/01/10 11:20:28;;;;;;;20.73;15.10;;;;;;;;;;4937166;28;20050;-84
2024/01/10 11:23:01;;;;;;;20.65;14.00;;;;;;;;;;4941546;28;20639;-83
2024/01/10 11:25:29;;;;;;;24.40;15.80;;;;;;;;;;4921825;29;20464;-83
2024/01/10 11:27:55;;;;;;;25.95;17.08;;;;;;;;;;4919893;28;20078;-83
2024/01/10 11:30:39;;;;;;;23.20;17.13;;;;;;;;;;4914867;28;20086;-83
2024/01/10 11:33:25;;;;;;;30.13;15.48;;;;;;;;;;4943697;28;20043;-82
2024/01/10 11:36:13;;;;;;;18.13;14.30;;;;;;;;;;4918474;28;20137;-82
2024/01/10 11:39:12;;;;;;;29.13;16.67;;;;;;;;;;4910605;28;20368;-84
2024/01/10 11:41:40;;;;;;;31.00;18.10;;;;;;;;;;4936598;28;20101;-84
2024/01/10 11:44:11;;;;;;;22.30;15.73;;;;;;;;;;4917009;29;20692;-84
2024/01/10 11:46:41;;;;;;;21.98;14.05;;;;;;;;;;4932193;28;20726;-84
2024/01/10 11:49:11;;;;;;;26.67;17.92;;;;;;;;;;4948325;28;20793;-83
2024/01/10 11:51:38;;;;;;;24.00;16.80;;;;;;;;;;4923717;28;20137;-84
2024/01/10 11:54:04;;;;;;;27.35;18.00;;;;;;;;;;4953614;28;20125;-83
2024/01/10 11:56:56;;;;;;;21.13;14.90;;;;;;;;;;4965277;28;20863;-83
2024/01/10 11:59:21;;;;;;;27.20;18.45;;;;;;;;;;4976331;28;20531;-83
2024/01/10 12:01:47;;;;;;;26.45;16.33;;;;;;;;;;4964722;28;20124;-83
2024/01/10 12:04:13;;;;;;;18.23;14.07;;;;;;;;;;4985957;28;20069;-83
2024/01/10 12:06:39;;;;;;;44.13;25.92;;;;;;;;;;4989463;28;20046;-83
2024/01/10 12:09:08;;;;;;;25.38;17.67;;;;;;;;;;4965229;28;20118;-83
2024/01/10 12:11:43;;;;;;;;;;;;;;;;;;4973870;28;20845;-82
2024/01/10 12:14:09;;;;;;;21.88;16.15;;;;;;;;;;5009032;28;19914;-82
2024/01/10 12:16:35;;;;;;;27.45;17.50;;;;;;;;;;4978466;28;20042;-82
2024/01/10 12:19:00;;;;;;;24.52;17.45;;;;;;;;;;4948902;28;20153;-83
2024/01/10 12:21:26;;;;;;;21.70;16.17;;;;;;;;;;4980619;28;20504;-82
2024/01/10 12:23:52;;;;;;;27.40;16.23;;;;;;;;;;4955766;28;20168;-83
2024/01/10 12:26:19;;;;;;;26.33;16.48;;;;;;;;;;4970057;28;20066;-83
2024/01/10 12:28:55;;;;;;;27.38;18.38;;;;;;;;;;4964650;28;20643;-82
2024/01/10 12:31:22;;;;;;;38.67;20.45;;;;;;;;;;5002925;28;20765;-82
2024/01/10 12:33:49;;;;;;;32.67;20.23;;;;;;;;;;4971803;28;20047;-82
2024/01/10 12:36:17;;;;;;;26.23;16.85;;;;;;;;;;4987463;28;20038;-82
2024/01/10 12:38:46;;;;;;;27.17;19.10;;;;;;;;;;4946918;28;20046;-81
2024/01/10 12:41:14;;;;;;;36.45;19.17;;;;;;;;;;5008486;28;20602;-82
2024/01/10 12:43:40;;;;;;;29.70;17.80;;;;;;;;;;4988458;28;20218;-82
2024/01/10 12:46:07;;;;;;;27.73;16.50;;;;;;;;;;4950979;28;20176;-83
2024/01/10 12:48:36;;;;;;;31.35;17.50;;;;;;;;;;4992332;28;20057;-82
2024/01/10 12:51:05;;;;;;;26.02;16.85;;;;;;;;;;4969843;28;20061;-82
2024/01/10 12:53:41;;;;;;;;;;;;;;;;;;4971656;28;20030;-82
2024/01/10 12:56:08;;;;;;;23.27;14.57;;;;;;;;;;4951034;28;20005;-82
2024/01/10 12:58:36;;;;;;;24.55;16.08;;;;;;;;;;4967772;28;20468;-82
2024/01/10 13:01:06;;;;;;;27.35;16.55;;;;;;;;;;4966815;28;20049;-83
2024/01/10 13:03:32;;;;;;;30.30;17.10;;;;;;;;;;4957389;28;20052;-83
2024/01/10 13:05:58;;;;;;;33.67;19.33;;;;;;;;;;4953934;28;20050;-82
2024/01/10 13:08:24;;;;;;;19.08;12.18;;;;;;;;;;4995353;28;20803;-82
2024/01/10 13:10:49;;;;;;;39.97;18.40;;;;;;;;;;4951145;28;20052;-83
2024/01/10 13:13:17;;;;;;;42.58;29.23;;;;;;;;;;4983151;28;20069;-83
2024/01/10 13:15:45;;;;;;;30.10;16.10;;;;;;;;;;4988671;28;20418;-82
2024/01/10 13:18:10;;;;;;;24.05;16.25;;;;;;;;;;4951461;28;20137;-82
2024/01/10 13:20:37;;;;;;;34.45;17.38;;;;;;;;;;4961460;28;20141;-82
2024/01/10 13:23:04;;;;;;;23.98;14.73;;;;;;;;;;4975128;28;20124;-83
2024/01/10 13:25:29;;;;;;;31.88;16.80;;;;;;;;;;4993332;28;20101;-83
2024/01/10 13:27:55;;;;;;;26.10;16.60;;;;;;;;;;4989560;28;20041;-82
2024/01/10 13:30:20;;;;;;;28.15;18.55;;;;;;;;;;4989225;28;20034;-82
2024/01/10 13:32:49;;;;;;;22.13;14.77;;;;;;;;;;4969175;28;20044;-83
2024/01/10 13:35:18;;;;;;;22.93;14.67;;;;;;;;;;4996903;28;20038;-82
2024/01/10 13:37:44;;;;;;;;;;;;;;;;;;4947034;28;20078;-83
2024/01/10 13:40:14;;;;;;;21.80;14.70;;;;;;;;;;4989971;28;19991;-82
2024/01/10 13:42:40;;;;;;;28.67;16.80;;;;;;;;;;4990032;28;20042;-83
2024/01/10 13:45:07;;;;;;;27.05;15.27;;;;;;;;;;4990776;28;20127;-82
2024/01/10 13:47:34;;;;;;;27.33;16.40;;;;;;;;;;4978159;28;20034;-83
2024/01/10 13:50:00;;;;;;;30.35;18.05;;;;;;;;;;4963650;28;20595;-83
2024/01/10 13:52:26;;;;;;;22.77;14.20;;;;;;;;;;4987375;28;20076;-82
2024/01/10 13:54:52;;;;;;;24.83;16.17;;;;;;;;;;4964133;28;20133;-82
2024/01/10 13:57:18;;;;;;;26.35;15.95;;;;;;;;;;4967951;28;20077;-82
2024/01/10 13:59:44;;;;;;;22.00;14.73;;;;;;;;;;4961078;28;20047;-82
2024/01/10 14:02:10;;;;;;;25.67;15.57;;;;;;;;;;4983639;28;20053;-82
2024/01/10 14:04:36;;;;;;;27.73;16.05;;;;;;;;;;4958987;28;20043;-83
2024/01/10 14:07:05;;;;;;;27.45;16.75;;;;;;;;;;4981914;28;20038;-84
2024/01/10 14:09:31;;;;;;;26.25;16.10;;;;;;;;;;4988588;28;20057;-83
2024/01/10 14:11:57;;;;;;;29.00;16.17;;;;;;;;;;4946980;28;20537;-83
2024/01/10 14:14:23;;;;;;;32.88;18.58;;;;;;;;;;4997748;28;20073;-82
2024/01/10 14:16:49;;;;;;;20.63;14.90;;;;;;;;;;4980628;28;20095;-82
2024/01/10 14:19:17;;;;;;;31.42;18.35;;;;;;;;;;4981758;28;20049;-83
2024/01/10 14:21:43;;;;;;;27.50;17.95;;;;;;;;;;4947943;28;20038;-82
2024/01/10 14:24:08;;;;;;;24.85;16.33;;;;;;;;;;4964603;28;20109;-83
2024/01/10 14:26:35;;;;;;;36.08;19.63;;;;;;;;;;4998241;28;20126;-82
2024/01/10 14:29:01;;;;;;;24.92;16.17;;;;;;;;;;5012580;28;20038;-82